Terminal Aerodrome Forecast
Issued by NWS Jackson, KY

Home | Current Version | Previous Version | Text Only | Print | Product List | Glossary On
Versions: 1 2 3 4 5 6 7 8 9 10 11 12 13
365
FTUS43 KJKL 152333
TAFLOZ
TAF
KLOZ 152333Z 1600/1624 22005KT P6SM OVC070
     FM160600 24005KT 6SM -SN OVC025
     FM160800 28007G15KT 3SM -SN OVC010
     FM161600 28005KT 2SM -SHSN OVC010
     FM162200 29006KT P6SM VCSH BKN010=

USA.gov is the U.S. government's official web portal to all federal, state and local government web resources and services.